Time;durP1;ratioP1;P1;durP2;ratioP2;P2;SDS_P1;SDS_P2;PMS_P1;PMS_P2;Temp;Humidity;BMP_temperature;BMP_pressure;BME280_temperature;BME280_humidity;BME280_pressure;Samples;Min_cycle;Max_cycle;Signal;HPM_P1;HPM_P2
2021/05/06 00:33:22;;;;;;;5.78;4.57;;;5.30;99.90;;;;;;5080349;28;20044;-89
2021/05/06 00:35:49;;;;;;;6.30;4.65;;;5.30;99.90;;;;;;5105976;27;20039;-89
2021/05/06 00:38:22;;;;;;;5.78;4.53;;;5.30;99.90;;;;;;5113063;27;20127;-88
2021/05/06 00:55:09;;;;;;;6.65;5.25;;;5.40;99.90;;;;;;5126484;27;20093;-89
2021/05/06 01:00:22;;;;;;;6.78;5.00;;;5.40;99.90;;;;;;5109678;28;20097;-89
2021/05/06 01:10:53;;;;;;;8.20;5.88;;;5.30;99.90;;;;;;5086385;27;20040;-89
2021/05/06 01:12:53;;;;;;;8.23;6.07;;;5.30;99.90;;;;;;5114647;27;20035;-89
2021/05/06 01:15:18;;;;;;;8.20;5.95;;;5.30;99.90;;;;;;5064680;28;20151;-89
2021/05/06 01:17:44;;;;;;;6.57;5.55;;;5.30;99.90;;;;;;5103634;28;20118;-89
2021/05/06 01:20:11;;;;;;;6.70;5.65;;;5.30;99.90;;;;;;5093117;28;20040;-90
2021/05/06 01:22:37;;;;;;;7.95;5.63;;;5.40;99.90;;;;;;5103609;28;20063;-88
2021/05/06 01:25:03;;;;;;;8.15;6.53;;;5.40;99.90;;;;;;5107420;28;20150;-89
2021/05/06 01:32:45;;;;;;;9.77;7.43;;;5.30;99.90;;;;;;5114411;28;20093;-89
2021/05/06 01:35:20;;;;;;;9.90;7.93;;;5.20;99.90;;;;;;5083680;28;20044;-87
2021/05/06 01:38:07;;;;;;;9.15;7.75;;;5.20;99.90;;;;;;5105883;28;20068;-88
2021/05/06 01:59:49;;;;;;;9.75;6.63;;;5.10;99.90;;;;;;5114994;28;20061;-90
2021/05/06 02:02:03;;;;;;;8.15;6.60;;;5.20;99.90;;;;;;5110358;28;20039;-91
2021/05/06 02:04:29;;;;;;;8.65;6.35;;;5.20;99.90;;;;;;5096152;28;20101;-92
2021/05/06 02:06:55;;;;;;;8.32;6.78;;;5.20;99.90;;;;;;5095592;28;20024;-89
2021/05/06 02:09:20;;;;;;;7.57;6.10;;;5.20;99.90;;;;;;5095205;28;20063;-89
2021/05/06 02:11:47;;;;;;;7.78;6.85;;;5.20;99.90;;;;;;5095916;28;20062;-90
2021/05/06 02:14:13;;;;;;;9.07;7.85;;;5.20;99.90;;;;;;5095356;28;20044;-88
2021/05/06 02:16:39;;;;;;;11.13;8.60;;;5.20;99.90;;;;;;5096256;28;20031;-89
2021/05/06 02:19:06;;;;;;;10.13;8.15;;;5.10;99.90;;;;;;5114308;28;20028;-89
2021/05/06 02:21:32;;;;;;;9.85;7.68;;;5.00;99.90;;;;;;5096296;28;20032;-89
2021/05/06 02:23:58;;;;;;;11.52;9.30;;;5.10;99.90;;;;;;5095522;28;20031;-89
2021/05/06 02:26:24;;;;;;;12.60;10.65;;;5.00;99.90;;;;;;5096217;28;20035;-89
2021/05/06 02:28:51;;;;;;;11.07;9.57;;;5.00;99.90;;;;;;5096317;28;20023;-89
2021/05/06 02:31:16;;;;;;;11.35;9.50;;;5.00;99.90;;;;;;5098486;28;20132;-91
2021/05/06 02:33:43;;;;;;;10.20;8.70;;;4.90;99.90;;;;;;5099939;28;20487;-90
2021/05/06 02:36:09;;;;;;;8.68;7.32;;;4.90;99.90;;;;;;5099427;28;20035;-89
2021/05/06 02:38:35;;;;;;;9.02;8.00;;;4.90;99.90;;;;;;5099528;28;20101;-89
2021/05/06 02:41:01;;;;;;;10.05;8.15;;;4.80;99.90;;;;;;5099827;28;20434;-89
2021/05/06 02:43:26;;;;;;;9.18;7.10;;;4.90;99.90;;;;;;5082609;28;20032;-89
2021/05/06 02:45:52;;;;;;;7.95;6.32;;;4.90;99.90;;;;;;5099523;28;20031;-88
2021/05/06 02:48:18;;;;;;;8.05;6.90;;;4.90;99.90;;;;;;5099621;28;20023;-90
2021/05/06 02:50:49;;;;;;;8.32;6.70;;;4.90;99.90;;;;;;5099293;28;20057;-90
2021/05/06 02:53:19;;;;;;;7.63;6.47;;;4.80;99.90;;;;;;5099273;28;20035;-90
2021/05/06 03:03:28;;;;;;;7.28;5.88;;;4.80;99.90;;;;;;5100057;28;20104;-91
2021/05/06 03:05:55;;;;;;;6.93;4.95;;;4.70;99.90;;;;;;5093013;28;20123;-89
2021/05/06 03:24:05;;;;;;;7.15;5.50;;;4.40;99.90;;;;;;5116815;28;20034;-89
2021/05/06 03:26:33;;;;;;;8.02;6.07;;;4.30;99.90;;;;;;5116562;28;20059;-89
2021/05/06 03:29:10;;;;;;;7.18;5.70;;;4.30;99.90;;;;;;5098852;28;20036;-89
2021/05/06 03:32:19;;;;;;;9.68;5.70;;;4.30;99.90;;;;;;5114567;28;20020;-89
2021/05/06 03:35:03;;;;;;;7.15;5.07;;;4.30;99.90;;;;;;5116840;28;20028;-90
2021/05/06 04:36:25;;;;;;;10.75;9.60;;;4.30;99.90;;;;;;5100509;28;20062;-88
2021/05/06 04:38:43;;;;;;;13.52;10.52;;;4.30;99.90;;;;;;5099185;28;20472;-89
2021/05/06 04:50:19;;;;;;;14.52;11.85;;;4.40;99.90;;;;;;5115449;28;20056;-88
2021/05/06 04:54:47;;;;;;;12.82;10.75;;;4.50;99.90;;;;;;5115101;28;20066;-89
2021/05/06 04:57:40;;;;;;;13.30;10.75;;;4.50;99.90;;;;;;5097353;28;20093;-88
2021/05/06 05:05:35;;;;;;;;;;;4.70;99.90;;;;;;5115844;28;20038;-89
2021/05/06 05:08:07;;;;;;;12.45;9.27;;;4.70;99.90;;;;;;5096804;28;19904;-91
2021/05/06 05:11:03;;;;;;;13.45;11.35;;;4.80;99.90;;;;;;5097089;28;20479;-89
2021/05/06 05:13:52;;;;;;;15.48;12.70;;;4.70;99.90;;;;;;5084584;28;20166;-89
2021/05/06 05:24:47;;;;;;;20.27;16.27;;;4.70;99.90;;;;;;5114976;28;20036;-91
2021/05/06 05:27:13;;;;;;;16.63;14.48;;;4.70;99.90;;;;;;5083209;28;20059;-91
2021/05/06 05:29:42;;;;;;;18.98;16.13;;;4.70;99.90;;;;;;5079963;28;20202;-89
2021/05/06 05:32:10;;;;;;;17.45;14.38;;;4.70;99.90;;;;;;5114852;28;20032;-89
2021/05/06 05:34:40;;;;;;;17.85;15.27;;;4.70;99.90;;;;;;5096937;28;20038;-88
2021/05/06 05:37:06;;;;;;;17.85;15.05;;;4.70;99.90;;;;;;5096783;28;20375;-89
2021/05/06 05:47:31;;;;;;;21.33;17.95;;;5.00;99.90;;;;;;5112753;28;20408;-88
2021/05/06 05:55:12;;;;;;;23.00;18.95;;;5.10;99.90;;;;;;5113341;28;20463;-89
2021/05/06 05:57:38;;;;;;;25.77;20.60;;;5.10;99.90;;;;;;5094470;28;20051;-89
2021/05/06 06:00:05;;;;;;;23.27;19.95;;;5.10;99.90;;;;;;5094126;28;20097;-90
2021/05/06 06:02:33;;;;;;;24.23;20.30;;;5.10;99.90;;;;;;5093403;28;20036;-91
2021/05/06 06:05:01;;;;;;;23.92;19.98;;;5.20;99.90;;;;;;5096322;28;20055;-88
2021/05/06 06:07:28;;;;;;;29.65;24.27;;;5.40;99.90;;;;;;5095593;28;20035;-89
2021/05/06 06:09:57;;;;;;;25.15;20.83;;;5.40;99.90;;;;;;5094779;28;20028;-90
2021/05/06 06:12:23;;;;;;;28.20;23.77;;;5.50;99.90;;;;;;5093866;28;20039;-89
2021/05/06 06:15:01;;;;;;;33.13;26.35;;;5.50;99.90;;;;;;5099215;28;20076;-89
2021/05/06 06:17:27;;;;;;;31.63;24.75;;;5.60;99.90;;;;;;5099734;28;20028;-89
2021/05/06 06:19:56;;;;;;;33.85;28.77;;;5.60;99.90;;;;;;5119046;28;20073;-90
2021/05/06 06:22:22;;;;;;;34.25;28.83;;;5.60;99.90;;;;;;5101420;28;20099;-89
2021/05/06 06:24:48;;;;;;;33.58;27.67;;;5.60;99.90;;;;;;5100918;28;20116;-90
2021/05/06 06:27:16;;;;;;;37.97;28.40;;;5.70;99.90;;;;;;5102342;28;20097;-89
2021/05/06 06:29:43;;;;;;;36.88;28.85;;;5.70;99.90;;;;;;5086509;28;20042;-90
2021/05/06 06:32:13;;;;;;;34.10;28.17;;;5.80;99.90;;;;;;5100653;28;20432;-91
2021/05/06 06:34:39;;;;;;;33.83;27.25;;;5.80;99.90;;;;;;5087076;28;20123;-90
2021/05/06 06:37:19;;;;;;;;;;;;;;;;;;;;;
2021/05/06 06:39:47;;;;;;;36.10;28.90;;;5.80;99.90;;;;;;5119119;28;20028;-89
2021/05/06 06:42:13;;;;;;;34.22;29.20;;;5.80;99.90;;;;;;5100877;28;20031;-90
2021/05/06 06:44:40;;;;;;;34.08;27.67;;;5.90;99.90;;;;;;5100300;28;20047;-89
2021/05/06 06:47:10;;;;;;;32.10;27.30;;;6.00;99.90;;;;;;5099315;28;20035;-88
2021/05/06 06:49:38;;;;;;;27.88;22.80;;;6.10;99.90;;;;;;5069732;28;20036;-91
2021/05/06 06:52:12;;;;;;;30.92;25.42;;;6.20;99.90;;;;;;5085710;28;20071;-89
2021/05/06 06:54:40;;;;;;;28.98;24.85;;;6.30;99.90;;;;;;5090089;28;20055;-90
2021/05/06 06:57:09;;;;;;;26.58;23.00;;;6.40;99.90;;;;;;5095398;28;20115;-90
2021/05/06 06:59:35;;;;;;;25.33;21.50;;;6.50;99.90;;;;;;5098412;28;20040;-90
2021/05/06 07:02:02;;;;;;;27.73;22.33;;;6.70;99.90;;;;;;5099238;28;20043;-90
2021/05/06 07:04:31;;;;;;;26.88;22.23;;;6.80;99.90;;;;;;5082372;28;20045;-89
2021/05/06 07:06:58;;;;;;;24.63;21.40;;;6.80;99.90;;;;;;5117178;28;20488;-90
2021/05/06 07:09:25;;;;;;;25.60;22.23;;;7.00;99.90;;;;;;5116040;28;20036;-90
2021/05/06 07:11:52;;;;;;;22.05;18.77;;;7.10;99.90;;;;;;5098748;28;20054;-90
2021/05/06 07:14:23;;;;;;;21.45;19.02;;;7.20;99.90;;;;;;5099262;28;20483;-91
2021/05/06 07:16:49;;;;;;;24.08;19.40;;;7.30;99.90;;;;;;5098124;28;20043;-91
2021/05/06 07:19:18;;;;;;;20.95;18.75;;;7.40;99.90;;;;;;5099344;28;20028;-90
2021/05/06 07:21:46;;;;;;;21.10;17.15;;;7.50;99.90;;;;;;5098389;28;20039;-90
2021/05/06 07:24:12;;;;;;;18.95;15.82;;;7.60;99.90;;;;;;5098442;28;20099;-90
2021/05/06 07:26:44;;;;;;;16.42;14.55;;;7.60;99.90;;;;;;5099771;28;20050;-91
2021/05/06 07:29:14;;;;;;;16.20;14.48;;;7.80;99.90;;;;;;5082911;28;20419;-90
2021/05/06 07:31:39;;;;;;;15.68;14.07;;;7.90;99.90;;;;;;5096112;28;20066;-90
2021/05/06 07:34:15;;;;;;;15.48;13.25;;;7.90;99.90;;;;;;5089415;28;20086;-91
2021/05/06 07:36:46;;;;;;;14.98;13.25;;;7.90;99.90;;;;;;5096466;28;20039;-92
2021/05/06 07:39:12;;;;;;;16.20;13.25;;;7.70;99.90;;;;;;5096263;28;20043;-91
2021/05/06 07:41:37;;;;;;;14.43;12.93;;;7.60;99.90;;;;;;5096249;28;20036;-91
2021/05/06 07:44:24;;;;;;;12.95;11.65;;;7.60;99.90;;;;;;5096994;28;20050;-90
2021/05/06 07:47:08;;;;;;;14.38;11.88;;;7.70;99.90;;;;;;5094656;28;20590;-90
2021/05/06 07:49:37;;;;;;;16.85;12.50;;;7.80;99.90;;;;;;5107834;28;20036;-91
2021/05/06 07:52:07;;;;;;;13.93;10.65;;;7.70;99.90;;;;;;5099941;28;20032;-89
2021/05/06 07:54:37;;;;;;;11.43;9.15;;;7.70;99.90;;;;;;5098957;28;20028;-91
2021/05/06 07:57:11;;;;;;;10.90;8.65;;;7.70;99.90;;;;;;5114500;28;20032;-90
2021/05/06 07:59:50;;;;;;;11.05;9.50;;;7.90;99.90;;;;;;5093274;28;20046;-90
2021/05/06 08:02:28;;;;;;;;;;;;;;;;;;;;;
2021/05/06 08:05:04;;;;;;;10.77;8.65;;;8.20;99.90;;;;;;5094627;28;20033;-91
2021/05/06 08:07:34;;;;;;;9.80;8.30;;;8.50;99.90;;;;;;5099212;28;20036;-93
2021/05/06 08:10:06;;;;;;;9.48;8.18;;;8.60;99.90;;;;;;5090560;28;20032;-92
2021/05/06 08:12:32;;;;;;;10.95;6.93;;;8.70;99.90;;;;;;5093909;28;20373;-93
2021/05/06 08:15:02;;;;;;;8.98;8.07;;;8.80;99.90;;;;;;5112111;28;20024;-91
2021/05/06 08:17:45;;;;;;;9.63;8.18;;;8.70;99.90;;;;;;5080669;28;20024;-93
2021/05/06 08:20:26;;;;;;;;;;;;;;;;;;;;;
2021/05/06 08:23:17;;;;;;;13.00;10.48;;;8.60;99.90;;;;;;5116617;28;20034;-91
2021/05/06 08:25:44;;;;;;;10.35;9.25;;;8.60;99.90;;;;;;5115145;28;20027;-91
2021/05/06 08:28:19;;;;;;;9.32;8.30;;;8.70;99.90;;;;;;5114902;28;20036;-92
2021/05/06 08:30:45;;;;;;;9.75;8.27;;;8.60;99.90;;;;;;5098004;28;20039;-90
2021/05/06 08:33:11;;;;;;;11.35;9.45;;;8.70;99.90;;;;;;5081125;28;20383;-90
2021/05/06 08:35:37;;;;;;;13.60;11.05;;;8.70;99.90;;;;;;5097258;28;20059;-91
2021/05/06 08:38:02;;;;;;;11.90;10.60;;;8.50;99.90;;;;;;5097065;28;20089;-89
2021/05/06 08:40:30;;;;;;;11.95;10.65;;;8.50;99.90;;;;;;5097480;28;20023;-89
2021/05/06 08:42:57;;;;;;;13.55;11.80;;;8.60;99.90;;;;;;5098351;28;20111;-90
2021/05/06 08:45:31;;;;;;;12.30;10.13;;;8.80;99.90;;;;;;5098989;28;20080;-90
2021/05/06 08:47:58;;;;;;;11.20;10.00;;;8.80;99.90;;;;;;5079691;28;20117;-91
2021/05/06 08:50:28;;;;;;;12.50;10.05;;;8.90;99.90;;;;;;5114224;28;20034;-93
2021/05/06 08:53:17;;;;;;;12.20;10.23;;;9.00;99.90;;;;;;5095167;28;20032;-92
2021/05/06 08:55:52;;;;;;;10.90;9.80;;;9.10;99.90;;;;;;5068830;28;20048;-92
2021/05/06 08:58:42;;;;;;;14.75;9.68;;;9.00;99.90;;;;;;5084013;28;20034;-91
2021/05/06 09:01:10;;;;;;;13.68;11.82;;;9.00;99.90;;;;;;5116811;28;20122;-94
2021/05/06 09:06:29;;;;;;;13.60;10.90;;;9.10;99.90;;;;;;5106342;28;20032;-93
2021/05/06 09:09:04;;;;;;;14.80;12.77;;;9.30;99.90;;;;;;5098486;28;20100;-94
2021/05/06 09:11:35;;;;;;;13.35;11.95;;;9.40;99.90;;;;;;5098885;28;20042;-95
2021/05/06 09:14:08;;;;;;;14.10;11.32;;;9.60;99.90;;;;;;5117266;28;20027;-94
2021/05/06 09:16:53;;;;;;;14.32;12.82;;;9.60;99.90;;;;;;5085095;28;20093;-94
2021/05/06 09:19:31;;;;;;;12.95;10.80;;;9.70;99.90;;;;;;5123706;28;20057;-94
2021/05/06 09:22:09;;;;;;;12.27;10.43;;;9.90;99.90;;;;;;5125320;28;20028;-94
2021/05/06 09:24:38;;;;;;;11.02;9.32;;;10.00;99.90;;;;;;5110978;28;20051;-93
2021/05/06 09:27:25;;;;;;;11.02;9.80;;;10.00;99.90;;;;;;5128932;28;20047;-94
2021/05/06 09:29:50;;;;;;;13.10;10.68;;;10.00;99.90;;;;;;5093250;28;20455;-92
2021/05/06 09:32:23;;;;;;;11.25;9.65;;;10.20;99.90;;;;;;5124308;28;20042;-94
2021/05/06 09:35:14;;;;;;;12.18;8.75;;;10.30;99.90;;;;;;5114555;28;20035;-92
2021/05/06 09:37:45;;;;;;;10.07;8.43;;;11.20;99.90;;;;;;5090822;28;20052;-91
2021/05/06 09:40:17;;;;;;;12.07;9.43;;;12.50;99.90;;;;;;5103844;28;20039;-90
2021/05/06 09:42:47;;;;;;;12.10;8.60;;;13.50;99.90;;;;;;5122598;28;20063;-91
2021/05/06 09:45:27;;;;;;;7.68;6.82;;;14.00;99.40;;;;;;5104512;28;20040;-93
2021/05/06 09:48:12;;;;;;;8.40;7.50;;;14.00;99.90;;;;;;5104114;28;20051;-95
2021/05/06 09:50:39;;;;;;;9.40;7.95;;;14.20;98.80;;;;;;5104711;28;20120;-92
2021/05/06 09:53:12;;;;;;;10.68;9.13;;;14.30;98.40;;;;;;5104283;28;20031;-89
2021/05/06 09:55:39;;;;;;;9.93;8.75;;;14.60;96.90;;;;;;5109347;28;20126;-90
2021/05/06 09:58:27;;;;;;;10.20;8.43;;;15.10;97.50;;;;;;5097768;28;20045;-89
2021/05/06 10:00:59;;;;;;;11.82;9.43;;;15.30;96.90;;;;;;5112140;28;20475;-88
2021/05/06 10:03:32;;;;;;;10.60;9.50;;;14.80;96.50;;;;;;5094599;28;20039;-89
2021/05/06 10:06:09;;;;;;;;;;;14.90;96.50;;;;;;5108543;28;20089;-89
2021/05/06 10:08:39;;;;;;;10.15;8.82;;;15.30;96.60;;;;;;5106043;28;19937;-90
2021/05/06 10:11:23;;;;;;;9.50;7.68;;;15.60;96.20;;;;;;5089589;28;20028;-90
2021/05/06 10:13:53;;;;;;;8.82;7.93;;;16.10;95.90;;;;;;5099258;28;20196;-89
2021/05/06 10:16:23;;;;;;;9.20;6.72;;;16.00;95.30;;;;;;5098312;28;20035;-92
2021/05/06 10:18:49;;;;;;;8.77;7.15;;;16.00;96.00;;;;;;5097440;28;20028;-91
2021/05/06 10:21:17;;;;;;;7.82;6.80;;;16.10;95.30;;;;;;5116970;28;20040;-91
2021/05/06 10:23:45;;;;;;;8.95;7.28;;;16.10;95.30;;;;;;5117504;28;20032;-92
2021/05/06 10:26:12;;;;;;;9.95;7.90;;;16.20;94.50;;;;;;5098062;28;20032;-89
2021/05/06 10:28:40;;;;;;;7.18;6.35;;;16.60;93.40;;;;;;5115595;28;20213;-90
2021/05/06 10:31:21;;;;;;;7.35;6.30;;;16.50;92.80;;;;;;5097807;28;20039;-91
2021/05/06 10:33:48;;;;;;;7.85;6.35;;;16.10;93.30;;;;;;5096944;28;20043;-90
2021/05/06 10:36:15;;;;;;;7.82;5.97;;;16.20;92.90;;;;;;5074857;28;20127;-91
2021/05/06 10:38:51;;;;;;;8.50;5.93;;;16.50;92.20;;;;;;5095400;28;20039;-92
2021/05/06 10:41:23;;;;;;;8.48;5.45;;;17.00;91.60;;;;;;5089011;28;20044;-90
2021/05/06 10:47:06;;;;;;;6.38;4.88;;;18.10;91.10;;;;;;5051049;28;20135;-91
2021/05/06 10:49:57;;;;;;;6.22;5.20;;;18.60;90.30;;;;;;5075365;28;20036;-91
2021/05/06 10:52:45;;;;;;;7.07;5.70;;;18.50;88.70;;;;;;5112141;28;20112;-91
2021/05/06 10:55:15;;;;;;;7.15;6.32;;;17.80;89.80;;;;;;5096001;27;20043;-91
2021/05/06 10:57:44;;;;;;;7.03;5.72;;;17.30;89.50;;;;;;5125788;27;20054;-89
2021/05/06 11:00:16;;;;;;;6.90;5.30;;;17.20;90.50;;;;;;5089275;28;20035;-88
2021/05/06 11:02:45;;;;;;;8.23;6.53;;;17.70;90.00;;;;;;5106417;27;20035;-87
2021/05/06 11:05:26;;;;;;;8.77;6.85;;;17.80;86.90;;;;;;5091997;28;20077;-88
2021/05/06 11:08:04;;;;;;;7.97;6.93;;;17.70;86.70;;;;;;5085235;28;20103;-87
2021/05/06 11:10:51;;;;;;;8.40;6.38;;;17.50;83.80;;;;;;5080080;28;20052;-87
2021/05/06 11:13:26;;;;;;;6.20;4.57;;;17.30;86.10;;;;;;5043602;28;20055;-86
2021/05/06 11:16:20;;;;;;;5.00;4.35;;;17.30;84.40;;;;;;5078097;28;20548;-89
2021/05/06 11:18:51;;;;;;;5.72;4.70;;;17.20;82.50;;;;;;5095546;28;20036;-87
2021/05/06 11:21:40;;;;;;;6.22;4.53;;;16.90;85.00;;;;;;5096223;28;20028;-85
2021/05/06 11:24:27;;;;;;;4.88;4.10;;;16.60;84.20;;;;;;5061433;28;20043;-85
2021/05/06 11:27:20;;;;;;;4.88;3.67;;;16.60;86.60;;;;;;5077658;28;20056;-87
2021/05/06 11:29:46;;;;;;;3.85;3.35;;;17.10;86.70;;;;;;5092114;28;20392;-85
2021/05/06 11:32:34;;;;;;;5.05;3.30;;;17.30;82.60;;;;;;5095233;28;20040;-87
2021/05/06 11:35:00;;;;;;;3.58;2.67;;;17.40;82.00;;;;;;5095776;28;20097;-86
2021/05/06 11:37:29;;;;;;;4.35;3.50;;;17.30;81.20;;;;;;5060849;28;20033;-85
2021/05/06 11:39:59;;;;;;;5.15;4.53;;;17.20;79.80;;;;;;5060824;28;20555;-86
2021/05/06 11:42:40;;;;;;;5.63;3.88;;;17.40;80.60;;;;;;5095140;28;20038;-86
2021/05/06 11:45:25;;;;;;;6.10;5.20;;;17.70;82.30;;;;;;5062449;28;20121;-86
2021/05/06 11:47:59;;;;;;;6.03;5.22;;;18.00;81.00;;;;;;5077296;28;20067;-85
2021/05/06 11:50:29;;;;;;;5.65;4.00;;;18.30;80.40;;;;;;5061776;28;20047;-85
2021/05/06 11:52:59;;;;;;;6.15;4.95;;;18.40;79.80;;;;;;5108809;28;20387;-86
2021/05/06 11:55:31;;;;;;;6.80;5.28;;;18.50;80.00;;;;;;5080637;28;20035;-86
2021/05/06 11:57:57;;;;;;;8.90;6.40;;;18.80;79.90;;;;;;5079370;28;20040;-85
2021/05/06 12:00:30;;;;;;;6.93;5.07;;;18.90;77.20;;;;;;5129829;27;20110;-86
2021/05/06 12:03:06;;;;;;;5.05;3.88;;;18.90;76.70;;;;;;5117379;27;20031;-86
2021/05/06 12:05:56;;;;;;;4.05;3.33;;;19.20;78.60;;;;;;5117758;27;20059;-87
2021/05/06 12:08:25;;;;;;;3.80;3.15;;;19.60;80.10;;;;;;5117694;27;20027;-86
2021/05/06 12:11:00;;;;;;;5.40;4.32;;;19.90;79.20;;;;;;5117570;27;20031;-89
2021/05/06 12:13:34;;;;;;;5.32;3.80;;;19.80;77.20;;;;;;5134803;27;20031;-90
2021/05/06 12:16:47;;;;;;;3.95;3.28;;;19.50;77.10;;;;;;5097262;28;20039;-88
2021/05/06 12:19:14;;;;;;;5.15;4.57;;;19.40;77.50;;;;;;5093661;28;20077;-87
2021/05/06 12:21:46;;;;;;;4.13;3.70;;;18.80;77.80;;;;;;5097208;28;20096;-87
2021/05/06 12:24:26;;;;;;;5.50;4.40;;;18.20;79.30;;;;;;5097408;28;20401;-88
2021/05/06 12:26:56;;;;;;;5.10;4.28;;;17.40;80.60;;;;;;5088627;28;20294;-89
2021/05/06 12:29:29;;;;;;;4.47;3.35;;;16.60;81.60;;;;;;5065493;28;20471;-90
2021/05/06 12:31:58;;;;;;;4.18;3.15;;;16.00;82.40;;;;;;5068571;28;20033;-88
2021/05/06 12:34:40;;;;;;;3.92;2.53;;;15.60;83.60;;;;;;5064427;28;20151;-91
2021/05/06 12:37:06;;;;;;;4.75;2.78;;;15.20;84.10;;;;;;5074679;28;20040;-88
2021/05/06 12:39:43;;;;;;;3.20;2.42;;;14.90;84.80;;;;;;5053335;28;20088;-88
2021/05/06 12:42:09;;;;;;;3.53;2.35;;;14.60;85.40;;;;;;5071357;28;20472;-88
2021/05/06 12:44:49;;;;;;;3.50;2.70;;;14.40;86.20;;;;;;5085862;28;20089;-88
2021/05/06 12:47:27;;;;;;;5.13;3.05;;;14.20;87.20;;;;;;5079596;28;20024;-86
2021/05/06 12:50:32;;;;;;;3.70;2.92;;;13.90;88.80;;;;;;5053609;28;20036;-92
2021/05/06 12:53:34;;;;;;;3.67;3.10;;;13.80;89.40;;;;;;5060817;28;20056;-90
2021/05/06 12:56:45;;;;;;;4.43;3.50;;;13.60;91.00;;;;;;4975313;28;20121;-92
2021/05/06 12:59:33;;;;;;;4.25;3.45;;;13.50;91.20;;;;;;4961454;28;20076;-88
2021/05/06 13:02:09;;;;;;;5.40;3.58;;;13.40;91.30;;;;;;4974054;28;20037;-89
2021/05/06 13:15:02;;;;;;;4.28;3.10;;;14.40;91.10;;;;;;4952502;28;20175;-91
2021/05/06 13:21:28;;;;;;;3.97;3.35;;;15.20;90.30;;;;;;4841082;29;20042;-91
2021/05/06 13:28:19;;;;;;;;;;;;;;;;;;;;;
2021/05/06 13:30:49;;;;;;;3.88;3.38;;;14.90;91.00;;;;;;4935020;29;20031;-89
2021/05/06 13:33:50;;;;;;;5.22;3.80;;;15.00;90.70;;;;;;4951628;28;20039;-89
2021/05/06 13:36:41;;;;;;;5.45;4.20;;;14.80;90.10;;;;;;4897369;28;20030;-88
2021/05/06 13:43:24;;;;;;;;;;;;;;;;;;;;;
2021/05/06 13:46:35;;;;;;;5.32;3.55;;;13.90;90.70;;;;;;4984650;28;20030;-92
2021/05/06 13:52:50;;;;;;;7.80;4.70;;;13.90;91.10;;;;;;4984632;28;20046;-89
2021/05/06 13:55:59;;;;;;;6.55;4.70;;;13.80;90.70;;;;;;4961384;28;20054;-88
2021/05/06 13:59:32;;;;;;;5.32;3.97;;;13.60;90.50;;;;;;4955856;28;20129;-92
2021/05/06 14:02:16;;;;;;;;;;;;;;;;;;;;;
2021/05/06 14:05:29;;;;;;;4.43;3.33;;;13.10;91.40;;;;;;4972509;28;20048;-90
2021/05/06 14:09:17;;;;;;;;;;;;;;;;;;;;;
2021/05/06 14:11:38;;;;;;;4.50;3.55;;;12.80;91.30;;;;;;4942800;28;20047;-90
2021/05/06 14:34:45;;;;;;;;;;;;;;;;;;;;;
2021/05/06 14:44:44;;;;;;;3.72;3.08;;;13.10;93.30;;;;;;5103501;28;20031;-90
2021/05/06 14:47:54;;;;;;;3.65;2.72;;;13.20;93.20;;;;;;5099636;28;20038;-89
2021/05/06 14:50:28;;;;;;;6.35;3.47;;;13.30;93.00;;;;;;5093415;27;20031;-90
2021/05/06 14:53:43;;;;;;;;;;;;;;;;;;;;;
2021/05/06 14:56:35;;;;;;;;;;;;;;;;;;;;;
2021/05/06 14:59:24;;;;;;;4.75;3.92;;;13.20;92.10;;;;;;5115059;28;20027;-89
2021/05/06 15:05:43;;;;;;;;;;;;;;;;;;;;;
2021/05/06 15:08:44;;;;;;;5.43;4.13;;;13.10;91.80;;;;;;5112182;28;20531;-90
2021/05/06 15:11:59;;;;;;;7.13;4.88;;;13.00;91.60;;;;;;5117383;28;20067;-90
2021/05/06 15:14:43;;;;;;;5.78;4.57;;;13.20;91.70;;;;;;5014339;28;20038;-90
2021/05/06 15:25:10;;;;;;;7.22;4.70;;;13.20;91.00;;;;;;4989216;28;20565;-90
2021/05/06 15:28:45;;;;;;;6.20;4.28;;;13.10;90.90;;;;;;4992561;28;20033;-90
2021/05/06 15:35:00;;;;;;;;;;;;;;;;;;;;;
2021/05/06 15:38:13;;;;;;;;;;;;;;;;;;;;;
2021/05/06 15:40:51;;;;;;;5.68;4.18;;;13.20;90.20;;;;;;5019888;28;20043;-92
2021/05/06 15:43:56;;;;;;;4.38;3.72;;;13.20;90.30;;;;;;5001871;28;20124;-89
2021/05/06 15:54:37;;;;;;;;;;;;;;;;;;;;;
2021/05/06 16:11:30;;;;;;;3.20;2.30;;;13.00;92.00;;;;;;4932219;28;20025;-91
2021/05/06 16:53:40;;;;;;;4.43;2.90;;;12.40;92.30;;;;;;4909437;29;20095;-89
2021/05/06 17:27:52;;;;;;;5.13;3.83;;;11.90;93.10;;;;;;4855459;29;20044;-91
2021/05/06 17:31:20;;;;;;;;;;;;;;;;;;;;;
2021/05/06 17:41:30;;;;;;;;;;;;;;;;;;;;;
2021/05/06 17:47:17;;;;;;;5.85;4.75;;;11.40;95.90;;;;;;4840080;29;20029;-90
2021/05/06 17:50:00;;;;;;;8.02;5.28;;;11.30;96.00;;;;;;4952563;28;20122;-90
2021/05/06 17:52:30;;;;;;;8.18;5.18;;;11.20;96.60;;;;;;4953989;28;20042;-90
2021/05/06 17:55:12;;;;;;;6.07;4.95;;;11.10;96.60;;;;;;5028978;28;20055;-87
2021/05/06 17:57:39;;;;;;;5.18;4.05;;;10.80;96.00;;;;;;5069668;28;20047;-89
2021/05/06 18:00:06;;;;;;;5.07;3.70;;;10.50;95.80;;;;;;5079484;28;20039;-89
2021/05/06 18:02:32;;;;;;;3.78;2.88;;;10.30;95.90;;;;;;5078563;28;20027;-89
2021/05/06 18:05:04;;;;;;;4.85;3.10;;;10.00;96.10;;;;;;5087763;28;20034;-88
2021/05/06 18:07:37;;;;;;;4.10;2.88;;;9.90;96.30;;;;;;5074311;28;20847;-88
2021/05/06 18:10:25;;;;;;;4.82;2.80;;;9.80;96.70;;;;;;5063345;28;20201;-89
2021/05/06 18:13:46;;;;;;;;;;;;;;;;;;;;;
2021/05/06 18:16:22;;;;;;;4.00;2.53;;;9.60;97.10;;;;;;5075661;28;20047;-89
2021/05/06 18:19:04;;;;;;;;;;;;;;;;;;;;;
2021/05/06 18:21:38;;;;;;;3.78;2.13;;;9.40;97.60;;;;;;5100626;28;20024;-89
2021/05/06 18:24:43;;;;;;;4.28;2.55;;;9.30;97.80;;;;;;5074378;28;20028;-88
2021/05/06 18:27:56;;;;;;;4.10;2.25;;;9.10;98.10;;;;;;5092252;28;20090;-89
2021/05/06 18:31:12;;;;;;;3.50;2.63;;;8.90;98.40;;;;;;5096236;28;20031;-91
2021/05/06 18:34:14;;;;;;;3.75;2.40;;;8.70;99.20;;;;;;5076463;28;20395;-92
2021/05/06 18:36:47;;;;;;;3.28;2.22;;;8.60;99.60;;;;;;5100231;28;20052;-91
2021/05/06 18:39:24;;;;;;;;;;;8.50;99.90;;;;;;5092754;28;20105;-90
2021/05/06 18:41:56;;;;;;;3.53;1.83;;;8.40;99.90;;;;;;5095842;28;19994;-90
2021/05/06 18:44:44;;;;;;;3.53;2.33;;;8.30;99.90;;;;;;5113888;27;20084;-90
2021/05/06 18:47:27;;;;;;;3.20;2.17;;;8.30;99.90;;;;;;5106717;28;20479;-89
2021/05/06 18:50:05;;;;;;;3.77;2.17;;;8.30;99.90;;;;;;5096658;28;20036;-92
2021/05/06 18:52:37;;;;;;;2.80;1.70;;;8.20;99.90;;;;;;5091374;28;20038;-91
2021/05/06 18:55:10;;;;;;;3.17;1.90;;;8.20;99.90;;;;;;5109416;27;20023;-90
2021/05/06 18:57:49;;;;;;;4.47;2.00;;;8.20;99.90;;;;;;5102282;28;20036;-89
2021/05/06 19:00:22;;;;;;;4.22;2.05;;;8.20;99.90;;;;;;5094857;28;20039;-90
2021/05/06 19:02:56;;;;;;;4.32;2.50;;;8.20;99.90;;;;;;5095682;28;20600;-89
2021/05/06 19:05:22;;;;;;;3.92;2.20;;;8.10;99.90;;;;;;5095579;28;20043;-90
2021/05/06 19:07:49;;;;;;;3.22;2.28;;;8.10;99.90;;;;;;5128770;27;20111;-89
2021/05/06 19:10:21;;;;;;;2.65;1.70;;;8.10;99.90;;;;;;5097048;28;20027;-90
2021/05/06 19:12:47;;;;;;;2.53;1.70;;;8.20;99.90;;;;;;5113775;27;20027;-90
2021/05/06 19:15:14;;;;;;;3.20;2.10;;;8.20;99.90;;;;;;5088444;28;20043;-90
2021/05/06 19:17:40;;;;;;;3.20;1.90;;;8.20;99.90;;;;;;5097140;28;20044;-90
2021/05/06 19:20:07;;;;;;;3.78;2.10;;;8.30;99.90;;;;;;5106973;27;20468;-90
2021/05/06 19:22:51;;;;;;;2.72;2.00;;;8.30;99.90;;;;;;5123297;27;20024;-90
2021/05/06 19:25:22;;;;;;;2.95;1.77;;;8.30;99.90;;;;;;5098735;27;20123;-92
2021/05/06 19:27:57;;;;;;;3.75;2.13;;;8.30;99.90;;;;;;5102519;27;20023;-92
2021/05/06 19:30:27;;;;;;;2.60;2.00;;;8.30;99.90;;;;;;5104459;27;20035;-91
2021/05/06 19:33:02;;;;;;;3.63;2.10;;;8.30;99.90;;;;;;5100682;27;20107;-91
2021/05/06 19:35:34;;;;;;;4.05;2.15;;;8.40;99.90;;;;;;5094643;28;20038;-91
2021/05/06 19:38:09;;;;;;;3.15;2.00;;;8.40;99.90;;;;;;5105124;27;20057;-91
2021/05/06 19:40:42;;;;;;;2.53;2.03;;;8.40;99.90;;;;;;5095919;27;20469;-91
2021/05/06 19:43:10;;;;;;;3.17;1.90;;;8.40;99.90;;;;;;5106408;27;20054;-92
2021/05/06 19:45:47;;;;;;;3.92;2.40;;;8.40;99.90;;;;;;5106625;28;20043;-91
2021/05/06 19:48:23;;;;;;;3.88;2.20;;;8.50;99.90;;;;;;5110771;27;20032;-92
2021/05/06 19:50:49;;;;;;;2.97;1.90;;;8.40;99.90;;;;;;5101898;27;20042;-91
2021/05/06 19:53:17;;;;;;;2.20;1.60;;;8.40;99.90;;;;;;5115121;27;20039;-91
2021/05/06 19:55:43;;;;;;;2.40;1.70;;;8.40;99.90;;;;;;5105622;28;20040;-90
2021/05/06 19:58:09;;;;;;;4.03;2.40;;;8.50;99.90;;;;;;5094503;28;20023;-90
2021/05/06 20:00:45;;;;;;;3.60;2.45;;;8.40;99.90;;;;;;5109542;28;20073;-91
2021/05/06 20:03:39;;;;;;;4.13;2.47;;;8.40;99.90;;;;;;5112805;28;20028;-91
2021/05/06 20:06:08;;;;;;;3.50;2.30;;;8.30;99.90;;;;;;5097413;27;20135;-91
2021/05/06 20:08:35;;;;;;;4.90;2.38;;;8.30;99.90;;;;;;5099897;27;20379;-91
2021/05/06 20:11:10;;;;;;;3.10;2.33;;;8.20;99.90;;;;;;5105297;27;20057;-93
2021/05/06 20:13:47;;;;;;;3.40;2.47;;;8.30;99.90;;;;;;5099628;27;20120;-91